Time;durP1;ratioP1;P1;durP2;ratioP2;P2;SDS_P1;SDS_P2;PMS_P1;PMS_P2;Temp;Humidity;BMP_temperature;BMP_pressure;BME280_temperature;BME280_humidity;BME280_pressure;Samples;Min_cycle;Max_cycle;Signal;HPM_P1;HPM_P2
2022/10/26 00:01:12;;;;;;;4.72;2.60;;;;;;;;;;5071621;28;20063;-64
2022/10/26 00:03:40;;;;;;;4.03;2.45;;;;;;;;;;5074082;28;20059;-64
2022/10/26 00:06:16;;;;;;;4.75;2.58;;;;;;;;;;5075485;28;20075;-65
2022/10/26 00:08:43;;;;;;;5.22;2.25;;;;;;;;;;5073481;28;20101;-64
2022/10/26 00:11:10;;;;;;;4.70;2.00;;;;;;;;;;5074114;28;20049;-64
2022/10/26 00:13:38;;;;;;;5.30;2.33;;;;;;;;;;5075213;28;20052;-64
2022/10/26 00:16:09;;;;;;;2.97;1.80;;;;;;;;;;5057567;28;20078;-64
2022/10/26 00:18:36;;;;;;;2.90;1.75;;;;;;;;;;5073272;28;20048;-65
2022/10/26 00:21:03;;;;;;;5.35;2.10;;;;;;;;;;5075074;28;20052;-63
2022/10/26 00:23:30;;;;;;;5.60;2.00;;;;;;;;;;5075043;28;20044;-64
2022/10/26 00:25:57;;;;;;;4.22;2.10;;;;;;;;;;5074020;28;20106;-64
2022/10/26 00:28:24;;;;;;;7.68;2.40;;;;;;;;;;5074290;28;20091;-65
2022/10/26 00:30:50;;;;;;;5.38;2.22;;;;;;;;;;5074998;28;20063;-63
2022/10/26 00:33:17;;;;;;;4.43;2.30;;;;;;;;;;5075021;28;20048;-64
2022/10/26 00:35:51;;;;;;;3.05;1.88;;;;;;;;;;5074838;28;20048;-65
2022/10/26 00:38:18;;;;;;;2.67;2.08;;;;;;;;;;5074283;28;20102;-65
2022/10/26 00:40:46;;;;;;;2.58;2.00;;;;;;;;;;5074589;28;20569;-65
2022/10/26 00:43:39;;;;;;;6.10;2.13;;;;;;;;;;5074742;28;20048;-65
2022/10/26 00:46:08;;;;;;;7.30;3.00;;;;;;;;;;5067995;28;20113;-64
2022/10/26 00:48:37;;;;;;;4.60;2.40;;;;;;;;;;5040001;28;20592;-65
2022/10/26 00:51:27;;;;;;;3.13;1.92;;;;;;;;;;5053408;28;20419;-65
2022/10/26 00:53:53;;;;;;;3.15;2.35;;;;;;;;;;5053538;28;20049;-65
2022/10/26 00:56:20;;;;;;;4.78;1.98;;;;;;;;;;5053203;28;20419;-65
2022/10/26 00:58:47;;;;;;;5.80;2.03;;;;;;;;;;5053672;28;20049;-65
2022/10/26 01:01:13;;;;;;;4.80;2.20;;;;;;;;;;5036722;28;20049;-64
2022/10/26 01:03:40;;;;;;;5.38;2.08;;;;;;;;;;5036898;28;20118;-65
2022/10/26 01:06:07;;;;;;;3.05;1.88;;;;;;;;;;5053211;28;20136;-65
2022/10/26 01:08:33;;;;;;;7.63;3.10;;;;;;;;;;5054517;28;20111;-65
2022/10/26 01:11:00;;;;;;;3.30;2.20;;;;;;;;;;5054290;28;20106;-64
2022/10/26 01:13:28;;;;;;;5.90;2.30;;;;;;;;;;5068922;28;20049;-64
2022/10/26 01:16:07;;;;;;;2.90;2.60;;;;;;;;;;5069417;28;20049;-65
2022/10/26 01:19:15;;;;;;;5.78;2.80;;;;;;;;;;5069436;28;20071;-64
2022/10/26 01:22:11;;;;;;;5.63;2.35;;;;;;;;;;5072822;28;20498;-65
2022/10/26 01:24:57;;;;;;;3.67;2.30;;;;;;;;;;5066132;28;20045;-64
2022/10/26 01:27:30;;;;;;;3.22;2.25;;;;;;;;;;5073012;28;20556;-64
2022/10/26 01:30:18;;;;;;;4.00;2.60;;;;;;;;;;5072026;28;20048;-65
2022/10/26 01:33:00;;;;;;;5.93;2.15;;;;;;;;;;5074090;28;20279;-64
2022/10/26 01:36:04;;;;;;;5.00;2.70;;;;;;;;;;5074216;28;20044;-65
2022/10/26 01:39:06;;;;;;;8.95;3.00;;;;;;;;;;5071933;28;20044;-65
2022/10/26 01:41:36;;;;;;;4.28;2.47;;;;;;;;;;5058909;28;20522;-64
2022/10/26 01:44:04;;;;;;;6.55;2.67;;;;;;;;;;5056435;28;20076;-64
2022/10/26 01:46:34;;;;;;;4.40;2.30;;;;;;;;;;5072385;28;20044;-63
2022/10/26 01:49:05;;;;;;;3.53;2.25;;;;;;;;;;5051943;28;20194;-64
2022/10/26 01:51:31;;;;;;;2.90;2.25;;;;;;;;;;5052832;28;20094;-65
2022/10/26 01:53:58;;;;;;;4.07;2.20;;;;;;;;;;5035980;28;20053;-65
2022/10/26 01:56:26;;;;;;;5.28;2.38;;;;;;;;;;5053493;28;20492;-65
2022/10/26 01:59:12;;;;;;;3.40;2.58;;;;;;;;;;5051597;28;20087;-64
2022/10/26 02:01:48;;;;;;;5.43;2.42;;;;;;;;;;5053525;28;20111;-64
2022/10/26 02:04:32;;;;;;;6.45;2.30;;;;;;;;;;5053276;28;20126;-65
2022/10/26 02:07:09;;;;;;;4.90;2.00;;;;;;;;;;5053518;28;20077;-63
2022/10/26 02:09:56;;;;;;;5.78;2.45;;;;;;;;;;5071311;28;20072;-63
2022/10/26 02:12:45;;;;;;;5.35;2.85;;;;;;;;;;5071861;28;20466;-64
2022/10/26 02:15:19;;;;;;;5.85;2.70;;;;;;;;;;5073184;28;20114;-64
2022/10/26 02:18:09;;;;;;;4.68;2.40;;;;;;;;;;5071556;28;20490;-64
2022/10/26 02:20:39;;;;;;;5.35;2.83;;;;;;;;;;5062093;28;20418;-63
2022/10/26 02:23:06;;;;;;;10.43;2.53;;;;;;;;;;5071856;28;20470;-64
2022/10/26 02:25:34;;;;;;;4.45;2.20;;;;;;;;;;5070783;28;20080;-64
2022/10/26 02:28:12;;;;;;;5.15;2.65;;;;;;;;;;5050921;28;20568;-64
2022/10/26 02:30:39;;;;;;;6.75;2.70;;;;;;;;;;5035058;28;20106;-64
2022/10/26 02:33:06;;;;;;;3.33;2.08;;;;;;;;;;5051421;28;20538;-63
2022/10/26 02:35:34;;;;;;;4.78;2.78;;;;;;;;;;5052546;28;20053;-64
2022/10/26 02:38:02;;;;;;;6.05;2.40;;;;;;;;;;5042830;28;20147;-64
2022/10/26 02:40:28;;;;;;;5.55;2.55;;;;;;;;;;5054805;28;20080;-64
2022/10/26 02:42:57;;;;;;;5.20;2.33;;;;;;;;;;5071128;28;20503;-64
2022/10/26 02:45:26;;;;;;;9.32;2.30;;;;;;;;;;5071435;28;20044;-64
2022/10/26 02:47:53;;;;;;;6.18;2.50;;;;;;;;;;5050607;28;20128;-65
2022/10/26 02:50:21;;;;;;;3.92;2.40;;;;;;;;;;5034686;28;20052;-65
2022/10/26 02:53:10;;;;;;;6.28;2.50;;;;;;;;;;5067577;28;20079;-65
2022/10/26 02:55:39;;;;;;;7.57;3.22;;;;;;;;;;5035598;28;20511;-65
2022/10/26 02:58:10;;;;;;;6.95;2.45;;;;;;;;;;5033848;28;20526;-64
2022/10/26 03:00:36;;;;;;;5.43;2.47;;;;;;;;;;5051122;28;20076;-64
2022/10/26 03:03:03;;;;;;;8.93;3.15;;;;;;;;;;5051010;28;20077;-65
2022/10/26 03:05:31;;;;;;;8.32;2.95;;;;;;;;;;5052167;28;20107;-65
2022/10/26 03:07:59;;;;;;;6.00;2.75;;;;;;;;;;5049456;28;20095;-65
2022/10/26 03:10:26;;;;;;;3.75;2.78;;;;;;;;;;5051962;28;20045;-65
2022/10/26 03:12:52;;;;;;;5.57;2.60;;;;;;;;;;5050921;28;20044;-64
2022/10/26 03:15:19;;;;;;;4.60;2.88;;;;;;;;;;5051906;28;20503;-65
2022/10/26 03:17:46;;;;;;;4.22;2.70;;;;;;;;;;5057413;28;20048;-63
2022/10/26 03:20:13;;;;;;;4.72;2.92;;;;;;;;;;5071881;28;20518;-65
2022/10/26 03:22:39;;;;;;;6.25;3.03;;;;;;;;;;5071752;28;20534;-65
2022/10/26 03:25:06;;;;;;;5.65;3.10;;;;;;;;;;5070612;28;20052;-65
2022/10/26 03:27:34;;;;;;;6.30;3.20;;;;;;;;;;5070571;28;20465;-65
2022/10/26 03:30:01;;;;;;;6.50;2.97;;;;;;;;;;5071160;28;20044;-65
2022/10/26 03:32:27;;;;;;;6.03;3.20;;;;;;;;;;5070623;28;20056;-64
2022/10/26 03:34:54;;;;;;;6.82;3.78;;;;;;;;;;5071582;28;20139;-65
2022/10/26 03:37:20;;;;;;;7.22;3.30;;;;;;;;;;5071686;28;20372;-65
2022/10/26 03:39:47;;;;;;;6.30;3.42;;;;;;;;;;5071240;28;20076;-65
2022/10/26 03:42:13;;;;;;;5.35;3.42;;;;;;;;;;5070542;28;20100;-65
2022/10/26 03:44:40;;;;;;;5.75;3.58;;;;;;;;;;5071537;28;20049;-65
2022/10/26 03:47:07;;;;;;;5.68;3.58;;;;;;;;;;5071431;28;20049;-65
2022/10/26 03:49:34;;;;;;;6.97;4.10;;;;;;;;;;5070889;28;20458;-65
2022/10/26 03:52:01;;;;;;;6.22;3.72;;;;;;;;;;5071520;28;20503;-64
2022/10/26 03:54:28;;;;;;;4.32;3.70;;;;;;;;;;5071393;28;20083;-64
2022/10/26 03:56:55;;;;;;;7.20;4.10;;;;;;;;;;5071608;28;20053;-63
2022/10/26 03:59:21;;;;;;;6.47;3.85;;;;;;;;;;5070822;28;20131;-63
2022/10/26 04:01:48;;;;;;;9.20;3.97;;;;;;;;;;5071451;28;20088;-64
2022/10/26 04:04:20;;;;;;;6.88;3.10;;;;;;;;;;5071482;28;20056;-64
2022/10/26 04:06:47;;;;;;;5.35;3.08;;;;;;;;;;5071245;28;20044;-63
2022/10/26 04:09:14;;;;;;;8.50;3.88;;;;;;;;;;5070633;28;20170;-64
2022/10/26 04:11:40;;;;;;;4.93;2.72;;;;;;;;;;5071514;28;20048;-63
2022/10/26 04:14:07;;;;;;;6.57;2.95;;;;;;;;;;5071704;28;20074;-63
2022/10/26 04:16:33;;;;;;;6.70;2.83;;;;;;;;;;5071117;28;20419;-63
2022/10/26 04:19:00;;;;;;;4.97;2.70;;;;;;;;;;5070672;28;20080;-63
2022/10/26 04:21:27;;;;;;;7.88;3.10;;;;;;;;;;5071171;28;20071;-64
2022/10/26 04:23:53;;;;;;;5.05;2.65;;;;;;;;;;5071381;28;20049;-64
2022/10/26 04:26:20;;;;;;;5.93;2.80;;;;;;;;;;5071113;28;20096;-63
2022/10/26 04:28:46;;;;;;;6.85;2.83;;;;;;;;;;5070471;28;20045;-64
2022/10/26 04:31:13;;;;;;;4.80;2.40;;;;;;;;;;5070999;28;20100;-64
2022/10/26 04:33:39;;;;;;;5.90;2.72;;;;;;;;;;5070017;28;20487;-62
2022/10/26 04:36:07;;;;;;;6.30;3.08;;;;;;;;;;5071035;28;20140;-63
2022/10/26 04:38:33;;;;;;;4.15;2.33;;;;;;;;;;5070445;28;20457;-63
2022/10/26 04:41:00;;;;;;;3.80;2.85;;;;;;;;;;5071078;28;20052;-64
2022/10/26 04:43:26;;;;;;;5.40;2.83;;;;;;;;;;5071360;28;20056;-64
2022/10/26 04:45:56;;;;;;;5.93;2.78;;;;;;;;;;5071372;28;20099;-64
2022/10/26 04:48:23;;;;;;;3.92;2.60;;;;;;;;;;5070912;28;20096;-64
2022/10/26 04:50:58;;;;;;;6.75;2.88;;;;;;;;;;5074701;28;20099;-64
2022/10/26 04:53:25;;;;;;;9.95;2.65;;;;;;;;;;5074421;28;20044;-64
2022/10/26 04:55:59;;;;;;;8.10;2.58;;;;;;;;;;5074544;28;20049;-64
2022/10/26 04:58:27;;;;;;;5.97;2.60;;;;;;;;;;5073558;28;20052;-64
2022/10/26 05:00:53;;;;;;;4.95;2.35;;;;;;;;;;5074753;28;20083;-63
2022/10/26 05:03:20;;;;;;;5.32;2.50;;;;;;;;;;5073385;28;20102;-64
2022/10/26 05:05:47;;;;;;;5.00;2.67;;;;;;;;;;5073265;28;20075;-63
2022/10/26 05:08:14;;;;;;;2.67;2.22;;;;;;;;;;5078185;23;20392;-63
2022/10/26 05:10:41;;;;;;;5.35;2.20;;;;;;;;;;5052781;28;20072;-63
2022/10/26 05:13:08;;;;;;;5.60;2.53;;;;;;;;;;5054533;28;20045;-63
2022/10/26 05:15:35;;;;;;;3.30;2.00;;;;;;;;;;5053103;28;20080;-62
2022/10/26 05:18:04;;;;;;;5.53;2.28;;;;;;;;;;5053647;28;20053;-63
2022/10/26 05:20:32;;;;;;;6.65;2.70;;;;;;;;;;5054072;28;20053;-64
2022/10/26 05:23:01;;;;;;;5.38;2.13;;;;;;;;;;5053993;28;20052;-63
2022/10/26 05:25:29;;;;;;;3.75;2.10;;;;;;;;;;5053810;28;20076;-63
2022/10/26 05:27:59;;;;;;;5.05;2.08;;;;;;;;;;5053482;28;20095;-62
2022/10/26 05:30:26;;;;;;;4.32;2.30;;;;;;;;;;5053943;28;20049;-62
2022/10/26 05:32:54;;;;;;;4.32;2.17;;;;;;;;;;5053974;28;20162;-63
2022/10/26 05:35:21;;;;;;;5.97;2.50;;;;;;;;;;5053655;28;20053;-64
2022/10/26 05:37:48;;;;;;;5.50;2.40;;;;;;;;;;5053331;28;20057;-63
2022/10/26 05:40:15;;;;;;;5.55;3.00;;;;;;;;;;5053433;28;20499;-62
2022/10/26 05:42:43;;;;;;;5.43;2.70;;;;;;;;;;5053828;28;20071;-63
2022/10/26 05:45:10;;;;;;;4.05;2.55;;;;;;;;;;5053705;28;20048;-63
2022/10/26 05:47:41;;;;;;;6.00;2.22;;;;;;;;;;5053514;28;20049;-64
2022/10/26 05:50:08;;;;;;;6.15;2.00;;;;;;;;;;5053054;28;20045;-64
2022/10/26 05:52:41;;;;;;;3.40;2.08;;;;;;;;;;5053345;28;20132;-63
2022/10/26 05:55:09;;;;;;;5.47;3.40;;;;;;;;;;5053695;28;20059;-63
2022/10/26 05:57:36;;;;;;;3.90;2.35;;;;;;;;;;5053529;28;20049;-63
2022/10/26 06:00:11;;;;;;;4.72;2.25;;;;;;;;;;5052438;28;20045;-63
2022/10/26 06:02:50;;;;;;;7.53;2.42;;;;;;;;;;5036362;28;20098;-63
2022/10/26 06:05:20;;;;;;;6.80;1.88;;;;;;;;;;5053739;28;20049;-63
2022/10/26 06:07:48;;;;;;;5.22;2.30;;;;;;;;;;5052185;28;20052;-62
2022/10/26 06:10:16;;;;;;;4.60;2.35;;;;;;;;;;5053090;28;20049;-64
2022/10/26 06:12:42;;;;;;;6.20;2.10;;;;;;;;;;5052978;28;20099;-63
2022/10/26 06:15:13;;;;;;;5.70;1.98;;;;;;;;;;5053216;28;20098;-64
2022/10/26 06:17:58;;;;;;;3.33;2.20;;;;;;;;;;5051733;28;20280;-64
2022/10/26 06:20:31;;;;;;;2.42;1.95;;;;;;;;;;5052979;28;20076;-64
2022/10/26 06:23:13;;;;;;;3.15;1.95;;;;;;;;;;5051765;28;20081;-64
2022/10/26 06:25:46;;;;;;;3.90;2.08;;;;;;;;;;5053066;28;20080;-63
2022/10/26 06:28:21;;;;;;;;;;;;;;;;;;5051344;28;20107;-64
2022/10/26 06:30:48;;;;;;;6.43;2.08;;;;;;;;;;5052715;28;20382;-63
2022/10/26 06:33:14;;;;;;;3.28;1.98;;;;;;;;;;5051403;28;20052;-63
2022/10/26 06:36:14;;;;;;;5.65;2.28;;;;;;;;;;5051536;28;20478;-63
2022/10/26 06:38:43;;;;;;;4.28;2.00;;;;;;;;;;5051948;28;20106;-64
2022/10/26 06:41:13;;;;;;;7.45;2.53;;;;;;;;;;5035057;28;20128;-63
2022/10/26 06:43:40;;;;;;;6.60;2.08;;;;;;;;;;5035131;28;20175;-64
2022/10/26 06:46:13;;;;;;;4.68;2.17;;;;;;;;;;5052460;28;20119;-64
2022/10/26 06:48:50;;;;;;;3.40;2.10;;;;;;;;;;5050586;28;20053;-64
2022/10/26 06:51:17;;;;;;;3.47;2.40;;;;;;;;;;5035509;28;20103;-64
2022/10/26 06:54:04;;;;;;;5.22;2.45;;;;;;;;;;5051110;28;20087;-64
2022/10/26 06:56:30;;;;;;;5.20;2.72;;;;;;;;;;5051004;28;20091;-63
2022/10/26 06:59:02;;;;;;;4.70;1.98;;;;;;;;;;5050408;28;20162;-64
2022/10/26 07:01:32;;;;;;;5.85;2.38;;;;;;;;;;5051252;28;20078;-63
2022/10/26 07:03:59;;;;;;;4.20;2.25;;;;;;;;;;5052378;28;20497;-64
2022/10/26 07:06:25;;;;;;;10.13;2.53;;;;;;;;;;5052189;28;20128;-62
2022/10/26 07:08:52;;;;;;;4.65;2.00;;;;;;;;;;5049861;28;20152;-63
2022/10/26 07:11:19;;;;;;;4.13;2.08;;;;;;;;;;5051639;28;20517;-63
2022/10/26 07:13:45;;;;;;;5.72;2.20;;;;;;;;;;5052358;28;20081;-63
2022/10/26 07:16:12;;;;;;;5.20;1.80;;;;;;;;;;5052146;28;20119;-64
2022/10/26 07:18:38;;;;;;;4.18;1.92;;;;;;;;;;5051121;28;20080;-63
2022/10/26 07:21:05;;;;;;;4.57;2.20;;;;;;;;;;5051170;28;20118;-63
2022/10/26 07:23:31;;;;;;;9.10;2.90;;;;;;;;;;5051799;28;20305;-64
2022/10/26 07:25:59;;;;;;;5.38;2.42;;;;;;;;;;5052255;28;20049;-62
2022/10/26 07:28:25;;;;;;;5.65;2.10;;;;;;;;;;5050978;28;20136;-63
2022/10/26 07:30:52;;;;;;;3.75;1.90;;;;;;;;;;5051894;28;20120;-63
2022/10/26 07:33:21;;;;;;;6.38;2.03;;;;;;;;;;5051596;28;20446;-63
2022/10/26 07:35:48;;;;;;;6.55;1.80;;;;;;;;;;5051807;28;20128;-64
2022/10/26 07:38:14;;;;;;;6.35;2.33;;;;;;;;;;5051113;28;20140;-63
2022/10/26 07:40:41;;;;;;;4.93;2.13;;;;;;;;;;5051426;28;20102;-63
2022/10/26 07:43:08;;;;;;;6.18;2.10;;;;;;;;;;5051589;28;20053;-63
2022/10/26 07:45:35;;;;;;;4.45;1.77;;;;;;;;;;5051482;28;20538;-62
2022/10/26 07:48:02;;;;;;;3.55;1.85;;;;;;;;;;5051263;28;20075;-63
2022/10/26 07:50:28;;;;;;;3.17;1.92;;;;;;;;;;5051683;28;20099;-62
2022/10/26 07:52:57;;;;;;;7.28;2.00;;;;;;;;;;5051539;28;20136;-63
2022/10/26 07:55:24;;;;;;;5.35;3.05;;;;;;;;;;5051505;28;20061;-62
2022/10/26 07:57:50;;;;;;;3.25;2.35;;;;;;;;;;5050793;28;20499;-64
2022/10/26 08:00:20;;;;;;;4.70;2.40;;;;;;;;;;5051434;28;20131;-64
2022/10/26 08:02:47;;;;;;;6.47;2.50;;;;;;;;;;5051561;28;20045;-62
2022/10/26 08:05:14;;;;;;;3.78;2.30;;;;;;;;;;5051530;28;20049;-63
2022/10/26 08:07:42;;;;;;;6.72;2.20;;;;;;;;;;5051130;28;20602;-63
2022/10/26 08:10:09;;;;;;;3.88;2.72;;;;;;;;;;5049559;28;20049;-63
2022/10/26 08:12:36;;;;;;;4.53;2.90;;;;;;;;;;5051215;28;20088;-63
2022/10/26 08:15:03;;;;;;;4.03;2.67;;;;;;;;;;5051423;28;20622;-63
2022/10/26 08:17:30;;;;;;;5.85;2.95;;;;;;;;;;5051491;28;20101;-63
2022/10/26 08:19:56;;;;;;;6.95;2.65;;;;;;;;;;5050695;28;20476;-63
2022/10/26 08:22:23;;;;;;;6.45;2.67;;;;;;;;;;5051218;28;20128;-64
2022/10/26 08:24:49;;;;;;;6.72;2.33;;;;;;;;;;5053839;28;20558;-64
2022/10/26 08:27:16;;;;;;;8.63;2.97;;;;;;;;;;5055167;28;20103;-63
2022/10/26 08:29:43;;;;;;;4.72;2.65;;;;;;;;;;5054614;28;20052;-63
2022/10/26 08:32:09;;;;;;;6.43;2.13;;;;;;;;;;5054909;28;20088;-63
2022/10/26 08:34:36;;;;;;;5.05;2.47;;;;;;;;;;5054912;28;20053;-64
2022/10/26 08:37:02;;;;;;;2.55;1.77;;;;;;;;;;5053598;28;20401;-64
2022/10/26 08:39:29;;;;;;;4.80;1.90;;;;;;;;;;5054124;28;20133;-64
2022/10/26 08:42:18;;;;;;;4.38;1.75;;;;;;;;;;5054673;28;20056;-63
2022/10/26 08:44:46;;;;;;;5.93;2.00;;;;;;;;;;5053862;28;20075;-64
2022/10/26 08:47:38;;;;;;;7.07;2.58;;;;;;;;;;5036990;28;20053;-64
2022/10/26 08:50:06;;;;;;;7.70;2.10;;;;;;;;;;5047154;28;20099;-64
2022/10/26 08:53:01;;;;;;;4.05;1.52;;;;;;;;;;5053433;28;20098;-64
2022/10/26 08:55:48;;;;;;;7.18;2.42;;;;;;;;;;5038423;28;20060;-64
2022/10/26 08:58:16;;;;;;;4.55;1.75;;;;;;;;;;5052259;28;20049;-64
2022/10/26 09:00:43;;;;;;;3.92;1.58;;;;;;;;;;5036036;28;20041;-64
2022/10/26 09:03:14;;;;;;;4.00;1.80;;;;;;;;;;5053190;28;20124;-64
2022/10/26 09:06:18;;;;;;;5.25;2.45;;;;;;;;;;5036675;28;20045;-63
2022/10/26 09:08:47;;;;;;;5.05;1.92;;;;;;;;;;5054012;28;20107;-64
2022/10/26 09:11:39;;;;;;;3.95;1.83;;;;;;;;;;5054454;28;20044;-64
2022/10/26 09:14:18;;;;;;;5.32;1.90;;;;;;;;;;5054719;28;20081;-63
2022/10/26 09:17:07;;;;;;;3.65;1.75;;;;;;;;;;5052826;28;20084;-63
2022/10/26 09:19:49;;;;;;;3.88;2.13;;;;;;;;;;5052231;28;20526;-64
2022/10/26 09:22:42;;;;;;;7.70;2.17;;;;;;;;;;5053089;28;20053;-63
2022/10/26 09:25:20;;;;;;;6.70;1.75;;;;;;;;;;5052772;28;20530;-64
2022/10/26 09:27:57;;;;;;;3.33;1.65;;;;;;;;;;5053596;28;20049;-63
2022/10/26 09:30:24;;;;;;;5.20;2.40;;;;;;;;;;5037554;28;20049;-64
2022/10/26 09:32:56;;;;;;;8.95;1.80;;;;;;;;;;5051492;28;20116;-63
2022/10/26 09:35:50;;;;;;;4.18;2.03;;;;;;;;;;5052175;28;20049;-63
2022/10/26 09:38:35;;;;;;;7.22;2.75;;;;;;;;;;5051983;28;20140;-64
2022/10/26 09:41:50;;;;;;;6.30;2.25;;;;;;;;;;5032318;28;20042;-64
2022/10/26 09:44:35;;;;;;;5.60;2.00;;;;;;;;;;5024621;28;20088;-63
2022/10/26 09:47:05;;;;;;;5.75;1.70;;;;;;;;;;5033645;28;20080;-64
2022/10/26 09:49:40;;;;;;;4.57;2.00;;;;;;;;;;5015476;28;20049;-63
2022/10/26 09:52:06;;;;;;;4.93;1.70;;;;;;;;;;5037231;28;20492;-63
2022/10/26 09:54:33;;;;;;;3.45;1.50;;;;;;;;;;5034113;28;20085;-63
2022/10/26 09:57:01;;;;;;;3.42;1.63;;;;;;;;;;5033380;28;20084;-64
2022/10/26 09:59:27;;;;;;;8.45;2.17;;;;;;;;;;5031619;28;20078;-63
2022/10/26 10:01:54;;;;;;;6.00;2.85;;;;;;;;;;5032412;28;20103;-64
2022/10/26 10:04:21;;;;;;;3.88;1.85;;;;;;;;;;5052096;28;20412;-63
2022/10/26 10:06:50;;;;;;;8.40;2.35;;;;;;;;;;5053492;28;20059;-63
2022/10/26 10:09:21;;;;;;;6.47;2.70;;;;;;;;;;5052705;28;20056;-63
2022/10/26 10:11:56;;;;;;;6.28;2.20;;;;;;;;;;5051996;28;20075;-64
2022/10/26 10:14:27;;;;;;;5.10;2.05;;;;;;;;;;5052094;28;20057;-64
2022/10/26 10:16:58;;;;;;;7.57;2.58;;;;;;;;;;5051844;28;20459;-63
2022/10/26 10:19:33;;;;;;;4.38;1.88;;;;;;;;;;5051098;28;20052;-63
2022/10/26 10:22:01;;;;;;;6.40;2.30;;;;;;;;;;5051721;28;20454;-63
2022/10/26 10:24:32;;;;;;;17.85;2.70;;;;;;;;;;5036424;28;20079;-63
2022/10/26 10:27:04;;;;;;;5.60;2.30;;;;;;;;;;5042302;28;20056;-62
2022/10/26 10:29:41;;;;;;;6.07;2.20;;;;;;;;;;5052632;28;20045;-63
2022/10/26 10:32:19;;;;;;;6.15;1.98;;;;;;;;;;5053115;28;20151;-63
2022/10/26 10:34:50;;;;;;;6.22;1.90;;;;;;;;;;5051599;28;20049;-63
2022/10/26 10:37:29;;;;;;;4.95;1.88;;;;;;;;;;5052553;28;20565;-63
2022/10/26 10:40:02;;;;;;;3.53;2.10;;;;;;;;;;5051732;28;20137;-64
2022/10/26 10:42:30;;;;;;;4.03;1.83;;;;;;;;;;5052450;28;20052;-64
2022/10/26 10:44:57;;;;;;;6.38;1.65;;;;;;;;;;5051501;28;20087;-63
2022/10/26 10:47:34;;;;;;;6.25;1.90;;;;;;;;;;5050637;28;20423;-64
2022/10/26 10:50:03;;;;;;;4.05;1.80;;;;;;;;;;5050825;28;20053;-64
2022/10/26 10:52:31;;;;;;;7.50;2.30;;;;;;;;;;5051048;28;20135;-64
2022/10/26 10:55:13;;;;;;;6.78;2.10;;;;;;;;;;5052499;28;20121;-63
2022/10/26 10:57:55;;;;;;;6.10;2.60;;;;;;;;;;5052210;28;20056;-63
2022/10/26 11:00:23;;;;;;;5.78;1.90;;;;;;;;;;5050925;28;20056;-64
2022/10/26 11:02:59;;;;;;;7.70;2.95;;;;;;;;;;5034754;28;20072;-63
2022/10/26 11:05:30;;;;;;;8.57;2.05;;;;;;;;;;5051266;28;20136;-64
2022/10/26 11:08:03;;;;;;;3.92;1.70;;;;;;;;;;5061111;23;20088;-64
2022/10/26 11:10:33;;;;;;;8.93;2.33;;;;;;;;;;5015288;28;20045;-64
2022/10/26 11:13:03;;;;;;;4.43;1.80;;;;;;;;;;5014686;28;20499;-64
2022/10/26 11:15:31;;;;;;;8.30;1.92;;;;;;;;;;4998304;28;20484;-64
2022/10/26 11:18:18;;;;;;;5.55;1.88;;;;;;;;;;4994429;28;20108;-64
2022/10/26 11:20:56;;;;;;;4.65;1.88;;;;;;;;;;4994631;28;20088;-64
2022/10/26 11:23:31;;;;;;;8.43;2.38;;;;;;;;;;4979497;28;20053;-64
2022/10/26 11:26:02;;;;;;;7.28;1.75;;;;;;;;;;4994569;28;20152;-64
2022/10/26 11:28:53;;;;;;;6.38;1.40;;;;;;;;;;4978189;28;20053;-64
2022/10/26 11:31:24;;;;;;;6.00;1.63;;;;;;;;;;5011927;28;20046;-64
2022/10/26 11:34:09;;;;;;;6.07;1.63;;;;;;;;;;4994429;28;20046;-65
2022/10/26 11:36:35;;;;;;;6.47;1.42;;;;;;;;;;5011893;28;20555;-64
2022/10/26 11:39:13;;;;;;;4.78;1.40;;;;;;;;;;4993950;28;20050;-64
2022/10/26 11:41:44;;;;;;;4.63;1.52;;;;;;;;;;4994453;28;20096;-63
2022/10/26 11:44:19;;;;;;;4.15;1.60;;;;;;;;;;4994541;28;20107;-64
2022/10/26 11:46:51;;;;;;;5.10;2.10;;;;;;;;;;5010605;28;20049;-63
2022/10/26 11:49:20;;;;;;;8.20;1.45;;;;;;;;;;4993466;28;20100;-63
2022/10/26 11:52:10;;;;;;;6.45;2.20;;;;;;;;;;5011237;28;20047;-64
2022/10/26 11:54:39;;;;;;;5.90;1.70;;;;;;;;;;5011911;28;20045;-64
2022/10/26 11:57:06;;;;;;;4.10;1.35;;;;;;;;;;4994202;28;20050;-64
2022/10/26 11:59:36;;;;;;;4.68;1.20;;;;;;;;;;4998133;28;20092;-64
2022/10/26 12:02:23;;;;;;;3.72;1.38;;;;;;;;;;4982598;28;20500;-64
2022/10/26 12:05:05;;;;;;;7.88;1.63;;;;;;;;;;5015758;28;20050;-64
2022/10/26 12:07:35;;;;;;;4.20;1.45;;;;;;;;;;5015442;28;20046;-62
2022/10/26 12:10:02;;;;;;;7.47;1.23;;;;;;;;;;4998014;28;20046;-65
2022/10/26 12:12:50;;;;;;;6.32;1.48;;;;;;;;;;4982230;28;20054;-64
2022/10/26 12:15:58;;;;;;;6.95;1.90;;;;;;;;;;4999003;28;20054;-65
2022/10/26 12:18:44;;;;;;;6.65;1.70;;;;;;;;;;4954309;28;20106;-64
2022/10/26 12:21:27;;;;;;;6.25;1.63;;;;;;;;;;4994749;28;20050;-64
2022/10/26 12:23:57;;;;;;;4.35;1.20;;;;;;;;;;4978652;28;20074;-64
2022/10/26 12:26:26;;;;;;;3.47;1.23;;;;;;;;;;4996038;28;20054;-65
2022/10/26 12:29:02;;;;;;;4.88;1.20;;;;;;;;;;5003884;28;20424;-64
2022/10/26 12:31:31;;;;;;;7.53;1.73;;;;;;;;;;5015634;28;20108;-63
2022/10/26 12:33:59;;;;;;;5.10;1.83;;;;;;;;;;5014124;28;20056;-63
2022/10/26 12:36:48;;;;;;;4.32;1.75;;;;;;;;;;4981783;28;20046;-63
2022/10/26 12:39:35;;;;;;;3.40;1.55;;;;;;;;;;5013412;28;20081;-64
2022/10/26 12:42:04;;;;;;;2.78;1.33;;;;;;;;;;4997885;28;20050;-64
2022/10/26 12:45:00;;;;;;;3.97;1.10;;;;;;;;;;5015100;28;20064;-64
2022/10/26 12:47:27;;;;;;;6.00;1.98;;;;;;;;;;4981505;28;20088;-63
2022/10/26 12:50:06;;;;;;;2.42;1.20;;;;;;;;;;5014561;28;20057;-64
2022/10/26 12:52:38;;;;;;;4.65;1.35;;;;;;;;;;5015101;28;20500;-65
2022/10/26 12:55:10;;;;;;;2.83;1.00;;;;;;;;;;5015498;28;20081;-65
2022/10/26 12:58:05;;;;;;;3.67;1.30;;;;;;;;;;5014709;28;20049;-64
2022/10/26 13:00:31;;;;;;;6.75;1.90;;;;;;;;;;5014812;28;20046;-62
2022/10/26 13:03:28;;;;;;;5.15;1.55;;;;;;;;;;4981590;28;20058;-64
2022/10/26 13:06:00;;;;;;;2.38;1.20;;;;;;;;;;4997305;28;20050;-64
2022/10/26 13:08:27;;;;;;;4.75;1.40;;;;;;;;;;5014110;28;20129;-64
2022/10/26 13:11:01;;;;;;;4.30;1.60;;;;;;;;;;4996543;28;20412;-64
2022/10/26 13:13:28;;;;;;;3.95;1.45;;;;;;;;;;4997264;28;20100;-63
2022/10/26 13:15:55;;;;;;;5.35;1.38;;;;;;;;;;4997307;28;20054;-64
2022/10/26 13:18:21;;;;;;;6.15;1.40;;;;;;;;;;5012433;28;20125;-64
2022/10/26 13:21:07;;;;;;;5.72;1.40;;;;;;;;;;4996805;28;20516;-64
2022/10/26 13:23:36;;;;;;;7.63;1.90;;;;;;;;;;4997324;28;20081;-64
2022/10/26 13:26:12;;;;;;;5.53;1.80;;;;;;;;;;5014357;28;20046;-64
2022/10/26 13:28:38;;;;;;;5.05;1.55;;;;;;;;;;5012765;28;20108;-64
2022/10/26 13:31:33;;;;;;;3.83;1.63;;;;;;;;;;5013990;28;20485;-64
2022/10/26 13:34:11;;;;;;;4.85;1.73;;;;;;;;;;5014200;28;20096;-65
2022/10/26 13:36:40;;;;;;;7.15;1.45;;;;;;;;;;4996843;28;20325;-64
2022/10/26 13:39:28;;;;;;;8.50;2.35;;;;;;;;;;5012151;28;20050;-64
2022/10/26 13:41:55;;;;;;;3.25;1.50;;;;;;;;;;4996566;28;20564;-64
2022/10/26 13:44:27;;;;;;;3.95;1.65;;;;;;;;;;4995923;28;20567;-64
2022/10/26 13:46:57;;;;;;;4.72;1.42;;;;;;;;;;4996834;28;20089;-64
2022/10/26 13:49:28;;;;;;;5.88;1.45;;;;;;;;;;4995835;28;20085;-63
2022/10/26 13:51:54;;;;;;;5.10;1.95;;;;;;;;;;4996413;28;20080;-64
2022/10/26 13:54:29;;;;;;;5.28;1.70;;;;;;;;;;4996506;28;20081;-64
2022/10/26 13:57:22;;;;;;;3.45;1.30;;;;;;;;;;4980653;28;20096;-64
2022/10/26 13:59:48;;;;;;;7.68;1.27;;;;;;;;;;5013042;28;20046;-64
2022/10/26 14:02:25;;;;;;;6.25;1.58;;;;;;;;;;4980075;28;20042;-64
2022/10/26 14:04:57;;;;;;;4.47;1.30;;;;;;;;;;5013675;28;20074;-64
2022/10/26 14:07:34;;;;;;;5.30;2.10;;;;;;;;;;4980702;28;20054;-64
2022/10/26 14:10:01;;;;;;;2.53;0.95;;;;;;;;;;4996901;28;20060;-64
2022/10/26 14:12:27;;;;;;;3.38;1.50;;;;;;;;;;5013333;28;20416;-64
2022/10/26 14:15:01;;;;;;;6.75;1.90;;;;;;;;;;5013631;28;20100;-64
2022/10/26 14:17:27;;;;;;;5.80;1.92;;;;;;;;;;4980750;28;20050;-64
2022/10/26 14:19:54;;;;;;;3.45;1.25;;;;;;;;;;5012617;28;20053;-64
2022/10/26 14:22:22;;;;;;;5.15;1.70;;;;;;;;;;5013166;28;20069;-64
2022/10/26 14:24:54;;;;;;;5.53;1.92;;;;;;;;;;4979876;28;20125;-64
2022/10/26 14:27:36;;;;;;;3.13;1.20;;;;;;;;;;5013109;28;20544;-63
2022/10/26 14:30:19;;;;;;;6.82;1.80;;;;;;;;;;4995430;28;20081;-63
2022/10/26 14:32:55;;;;;;;5.07;1.95;;;;;;;;;;4982885;28;20140;-63
2022/10/26 14:35:34;;;;;;;5.22;1.40;;;;;;;;;;4979507;28;20119;-63
2022/10/26 14:38:02;;;;;;;2.80;1.23;;;;;;;;;;5012626;28;20108;-64
2022/10/26 14:40:30;;;;;;;6.50;1.50;;;;;;;;;;4995651;28;20463;-63
2022/10/26 14:42:58;;;;;;;5.57;1.48;;;;;;;;;;4979551;28;20140;-64
2022/10/26 14:45:32;;;;;;;6.63;1.67;;;;;;;;;;4979447;28;20092;-64
2022/10/26 14:48:29;;;;;;;3.45;1.30;;;;;;;;;;4997679;28;20057;-64
2022/10/26 14:50:59;;;;;;;4.55;1.33;;;;;;;;;;4995527;28;20583;-64
2022/10/26 14:53:34;;;;;;;4.95;1.75;;;;;;;;;;5012785;28;20085;-64
2022/10/26 14:56:02;;;;;;;2.70;1.08;;;;;;;;;;5012704;28;20073;-64
2022/10/26 14:58:30;;;;;;;2.85;1.40;;;;;;;;;;4994647;28;20095;-64
2022/10/26 15:01:21;;;;;;;2.53;1.40;;;;;;;;;;4995195;28;20080;-64
2022/10/26 15:03:53;;;;;;;4.82;1.70;;;;;;;;;;4995384;28;20057;-64
2022/10/26 15:06:29;;;;;;;7.17;1.63;;;;;;;;;;5004188;28;20085;-64
2022/10/26 15:08:58;;;;;;;3.90;1.70;;;;;;;;;;4994225;28;20324;-63
2022/10/26 15:11:29;;;;;;;6.53;1.80;;;;;;;;;;4995308;28;20041;-64
2022/10/26 15:13:55;;;;;;;4.75;1.45;;;;;;;;;;4995066;28;20077;-64